sensor_id;sensor_type;location;lat;lon;timestamp;P1;durP1;ratioP1;P2;durP2;ratioP2
37877;SDS011;23715;53.652;8.516;2023-03-23T00:04:13;58.78;;;54.77;;
37877;SDS011;23715;53.652;8.516;2023-03-23T00:09:14;60.05;;;55.67;;
37877;SDS011;23715;53.652;8.516;2023-03-23T00:14:15;61.85;;;57.33;;
37877;SDS011;23715;53.652;8.516;2023-03-23T00:19:23;61.37;;;57.30;;
37877;SDS011;23715;53.652;8.516;2023-03-23T00:24:20;64.70;;;60.05;;
37877;SDS011;23715;53.652;8.516;2023-03-23T00:34:23;57.25;;;53.28;;
37877;SDS011;23715;53.652;8.516;2023-03-23T00:39:24;56.37;;;52.25;;
37877;SDS011;23715;53.652;8.516;2023-03-23T00:44:27;57.85;;;53.13;;
37877;SDS011;23715;53.652;8.516;2023-03-23T00:49:28;58.33;;;53.23;;
37877;SDS011;23715;53.652;8.516;2023-03-23T00:54:31;57.33;;;52.75;;
37877;SDS011;23715;53.652;8.516;2023-03-23T00:59:32;58.98;;;54.48;;
37877;SDS011;23715;53.652;8.516;2023-03-23T01:04:33;57.78;;;53.08;;
37877;SDS011;23715;53.652;8.516;2023-03-23T01:09:36;60.03;;;55.83;;
37877;SDS011;23715;53.652;8.516;2023-03-23T01:14:38;58.08;;;53.50;;
37877;SDS011;23715;53.652;8.516;2023-03-23T01:19:38;60.70;;;56.05;;
37877;SDS011;23715;53.652;8.516;2023-03-23T01:24:40;59.63;;;55.30;;
37877;SDS011;23715;53.652;8.516;2023-03-23T01:29:40;61.92;;;57.03;;
37877;SDS011;23715;53.652;8.516;2023-03-23T01:34:41;58.92;;;54.75;;
37877;SDS011;23715;53.652;8.516;2023-03-23T01:49:48;59.30;;;55.35;;
37877;SDS011;23715;53.652;8.516;2023-03-23T01:54:51;58.38;;;54.70;;
37877;SDS011;23715;53.652;8.516;2023-03-23T01:59:54;63.63;;;58.92;;
37877;SDS011;23715;53.652;8.516;2023-03-23T02:04:59;65.25;;;60.95;;
37877;SDS011;23715;53.652;8.516;2023-03-23T02:10:03;63.92;;;59.33;;
37877;SDS011;23715;53.652;8.516;2023-03-23T02:15:04;58.95;;;54.80;;
37877;SDS011;23715;53.652;8.516;2023-03-23T02:35:50;65.67;;;61.05;;
37877;SDS011;23715;53.652;8.516;2023-03-23T02:40:53;65.50;;;60.98;;
37877;SDS011;23715;53.652;8.516;2023-03-23T02:45:55;63.42;;;59.13;;
37877;SDS011;23715;53.652;8.516;2023-03-23T02:50:58;65.00;;;60.33;;
37877;SDS011;23715;53.652;8.516;2023-03-23T02:56:00;64.32;;;59.55;;
37877;SDS011;23715;53.652;8.516;2023-03-23T03:11:38;58.98;;;55.05;;
37877;SDS011;23715;53.652;8.516;2023-03-23T03:21:51;65.08;;;60.67;;
37877;SDS011;23715;53.652;8.516;2023-03-23T03:26:58;60.25;;;55.65;;
37877;SDS011;23715;53.652;8.516;2023-03-23T03:32:04;60.00;;;56.00;;
37877;SDS011;23715;53.652;8.516;2023-03-23T03:37:07;64.17;;;59.80;;
37877;SDS011;23715;53.652;8.516;2023-03-23T03:42:09;62.95;;;58.10;;
37877;SDS011;23715;53.652;8.516;2023-03-23T03:47:10;63.50;;;59.10;;
37877;SDS011;23715;53.652;8.516;2023-03-23T03:52:10;59.30;;;55.35;;
37877;SDS011;23715;53.652;8.516;2023-03-23T03:57:12;61.10;;;56.77;;
37877;SDS011;23715;53.652;8.516;2023-03-23T04:02:29;59.30;;;55.15;;
37877;SDS011;23715;53.652;8.516;2023-03-23T04:12:30;60.78;;;56.65;;
37877;SDS011;23715;53.652;8.516;2023-03-23T04:17:48;60.63;;;56.13;;
37877;SDS011;23715;53.652;8.516;2023-03-23T04:22:49;60.70;;;56.70;;
37877;SDS011;23715;53.652;8.516;2023-03-23T04:27:52;59.70;;;55.45;;
37877;SDS011;23715;53.652;8.516;2023-03-23T04:32:54;60.38;;;56.48;;
37877;SDS011;23715;53.652;8.516;2023-03-23T04:37:56;62.95;;;58.65;;
37877;SDS011;23715;53.652;8.516;2023-03-23T04:48:01;61.45;;;57.65;;
37877;SDS011;23715;53.652;8.516;2023-03-23T04:53:07;59.53;;;55.65;;
37877;SDS011;23715;53.652;8.516;2023-03-23T04:58:08;63.75;;;59.63;;
37877;SDS011;23715;53.652;8.516;2023-03-23T05:03:13;60.85;;;56.85;;
37877;SDS011;23715;53.652;8.516;2023-03-23T05:08:15;63.90;;;59.58;;
37877;SDS011;23715;53.652;8.516;2023-03-23T05:13:17;63.13;;;58.65;;
37877;SDS011;23715;53.652;8.516;2023-03-23T05:18:19;66.77;;;62.05;;
37877;SDS011;23715;53.652;8.516;2023-03-23T05:23:20;66.28;;;61.88;;
37877;SDS011;23715;53.652;8.516;2023-03-23T05:28:24;62.85;;;58.87;;
37877;SDS011;23715;53.652;8.516;2023-03-23T05:33:29;65.37;;;61.00;;
37877;SDS011;23715;53.652;8.516;2023-03-23T05:38:52;61.92;;;58.02;;
37877;SDS011;23715;53.652;8.516;2023-03-23T05:43:53;62.98;;;59.08;;
37877;SDS011;23715;53.652;8.516;2023-03-23T05:48:55;62.30;;;58.30;;
37877;SDS011;23715;53.652;8.516;2023-03-23T05:53:57;62.43;;;58.28;;
37877;SDS011;23715;53.652;8.516;2023-03-23T06:03:57;59.03;;;55.25;;
37877;SDS011;23715;53.652;8.516;2023-03-23T06:09:02;83.50;;;75.10;;
37877;SDS011;23715;53.652;8.516;2023-03-23T06:14:04;68.50;;;63.52;;
37877;SDS011;23715;53.652;8.516;2023-03-23T06:19:05;71.20;;;66.17;;
37877;SDS011;23715;53.652;8.516;2023-03-23T06:24:07;74.70;;;69.03;;
37877;SDS011;23715;53.652;8.516;2023-03-23T06:29:10;72.65;;;67.78;;
37877;SDS011;23715;53.652;8.516;2023-03-23T06:34:12;72.58;;;67.53;;
37877;SDS011;23715;53.652;8.516;2023-03-23T06:39:32;72.27;;;67.17;;
37877;SDS011;23715;53.652;8.516;2023-03-23T06:44:37;69.95;;;65.22;;
37877;SDS011;23715;53.652;8.516;2023-03-23T06:49:38;68.85;;;64.30;;
37877;SDS011;23715;53.652;8.516;2023-03-23T06:54:43;68.97;;;64.55;;
37877;SDS011;23715;53.652;8.516;2023-03-23T06:59:44;66.07;;;61.92;;
37877;SDS011;23715;53.652;8.516;2023-03-23T07:04:45;69.03;;;64.58;;
37877;SDS011;23715;53.652;8.516;2023-03-23T07:09:51;67.72;;;62.73;;
37877;SDS011;23715;53.652;8.516;2023-03-23T07:14:53;70.72;;;65.70;;
37877;SDS011;23715;53.652;8.516;2023-03-23T07:19:53;57.55;;;53.42;;
37877;SDS011;23715;53.652;8.516;2023-03-23T07:24:54;59.65;;;54.67;;
37877;SDS011;23715;53.652;8.516;2023-03-23T07:29:56;58.63;;;54.18;;
37877;SDS011;23715;53.652;8.516;2023-03-23T07:34:57;55.30;;;51.30;;
37877;SDS011;23715;53.652;8.516;2023-03-23T07:40:15;54.73;;;50.92;;
37877;SDS011;23715;53.652;8.516;2023-03-23T07:45:18;58.80;;;54.25;;
37877;SDS011;23715;53.652;8.516;2023-03-23T07:50:18;55.43;;;51.35;;
37877;SDS011;23715;53.652;8.516;2023-03-23T07:55:25;60.12;;;55.15;;
37877;SDS011;23715;53.652;8.516;2023-03-23T08:05:35;60.63;;;55.30;;
37877;SDS011;23715;53.652;8.516;2023-03-23T08:10:49;60.83;;;55.98;;
37877;SDS011;23715;53.652;8.516;2023-03-23T08:15:51;61.00;;;55.28;;
37877;SDS011;23715;53.652;8.516;2023-03-23T08:21:02;58.70;;;54.58;;
37877;SDS011;23715;53.652;8.516;2023-03-23T08:26:23;58.63;;;54.03;;
37877;SDS011;23715;53.652;8.516;2023-03-23T08:31:26;59.45;;;54.55;;
37877;SDS011;23715;53.652;8.516;2023-03-23T08:36:28;60.65;;;55.73;;
37877;SDS011;23715;53.652;8.516;2023-03-23T08:41:32;60.63;;;56.45;;
37877;SDS011;23715;53.652;8.516;2023-03-23T08:46:37;56.20;;;51.73;;
37877;SDS011;23715;53.652;8.516;2023-03-23T08:51:39;54.67;;;50.12;;
37877;SDS011;23715;53.652;8.516;2023-03-23T08:56:42;61.93;;;57.20;;
37877;SDS011;23715;53.652;8.516;2023-03-23T09:01:56;56.33;;;52.33;;
37877;SDS011;23715;53.652;8.516;2023-03-23T09:07:10;54.85;;;50.83;;
37877;SDS011;23715;53.652;8.516;2023-03-23T09:12:12;48.55;;;44.63;;
37877;SDS011;23715;53.652;8.516;2023-03-23T09:22:12;40.70;;;37.45;;
37877;SDS011;23715;53.652;8.516;2023-03-23T09:27:13;37.10;;;33.95;;
37877;SDS011;23715;53.652;8.516;2023-03-23T09:32:14;37.50;;;34.58;;
37877;SDS011;23715;53.652;8.516;2023-03-23T09:37:15;38.55;;;35.38;;
37877;SDS011;23715;53.652;8.516;2023-03-23T09:47:29;45.63;;;41.58;;
37877;SDS011;23715;53.652;8.516;2023-03-23T09:52:43;50.60;;;46.90;;
37877;SDS011;23715;53.652;8.516;2023-03-23T10:08:14;53.73;;;49.30;;
37877;SDS011;23715;53.652;8.516;2023-03-23T10:13:42;55.17;;;50.33;;
37877;SDS011;23715;53.652;8.516;2023-03-23T10:24:15;54.77;;;50.43;;
37877;SDS011;23715;53.652;8.516;2023-03-23T10:29:21;58.63;;;53.60;;
37877;SDS011;23715;53.652;8.516;2023-03-23T10:39:24;45.73;;;41.42;;
37877;SDS011;23715;53.652;8.516;2023-03-23T10:44:27;51.88;;;47.17;;
37877;SDS011;23715;53.652;8.516;2023-03-23T10:49:36;54.55;;;49.85;;
37877;SDS011;23715;53.652;8.516;2023-03-23T10:54:45;50.10;;;45.70;;
37877;SDS011;23715;53.652;8.516;2023-03-23T10:59:41;46.55;;;41.85;;
37877;SDS011;23715;53.652;8.516;2023-03-23T11:04:46;51.00;;;46.30;;
37877;SDS011;23715;53.652;8.516;2023-03-23T11:09:57;55.10;;;50.08;;
37877;SDS011;23715;53.652;8.516;2023-03-23T11:20:39;53.45;;;49.05;;
37877;SDS011;23715;53.652;8.516;2023-03-23T11:26:32;55.30;;;49.65;;
37877;SDS011;23715;53.652;8.516;2023-03-23T11:30:55;51.20;;;46.68;;
37877;SDS011;23715;53.652;8.516;2023-03-23T11:35:56;49.20;;;45.17;;
37877;SDS011;23715;53.652;8.516;2023-03-23T11:40:58;48.52;;;44.55;;
37877;SDS011;23715;53.652;8.516;2023-03-23T11:56:48;53.20;;;48.10;;
37877;SDS011;23715;53.652;8.516;2023-03-23T12:07:35;46.28;;;41.73;;
37877;SDS011;23715;53.652;8.516;2023-03-23T12:12:55;41.48;;;37.75;;
37877;SDS011;23715;53.652;8.516;2023-03-23T12:17:58;41.58;;;37.38;;
37877;SDS011;23715;53.652;8.516;2023-03-23T12:44:17;20.92;;;17.42;;
37877;SDS011;23715;53.652;8.516;2023-03-23T12:49:23;25.15;;;16.67;;
37877;SDS011;23715;53.652;8.516;2023-03-23T12:54:29;20.17;;;15.32;;
37877;SDS011;23715;53.652;8.516;2023-03-23T12:59:42;21.80;;;13.93;;
37877;SDS011;23715;53.652;8.516;2023-03-23T13:20:47;22.25;;;13.85;;
37877;SDS011;23715;53.652;8.516;2023-03-23T13:31:16;20.02;;;14.40;;
37877;SDS011;23715;53.652;8.516;2023-03-23T13:36:30;25.68;;;15.43;;
37877;SDS011;23715;53.652;8.516;2023-03-23T13:41:25;17.55;;;13.28;;
37877;SDS011;23715;53.652;8.516;2023-03-23T13:46:29;21.77;;;14.80;;
37877;SDS011;23715;53.652;8.516;2023-03-23T13:51:46;17.85;;;14.35;;
37877;SDS011;23715;53.652;8.516;2023-03-23T13:56:57;17.45;;;13.72;;
37877;SDS011;23715;53.652;8.516;2023-03-23T14:07:21;18.10;;;13.95;;
37877;SDS011;23715;53.652;8.516;2023-03-23T14:12:25;18.67;;;13.25;;
37877;SDS011;23715;53.652;8.516;2023-03-23T14:17:28;22.77;;;14.68;;
37877;SDS011;23715;53.652;8.516;2023-03-23T14:22:35;14.73;;;12.87;;
37877;SDS011;23715;53.652;8.516;2023-03-23T14:27:39;14.28;;;12.18;;
37877;SDS011;23715;53.652;8.516;2023-03-23T14:32:42;19.40;;;13.20;;
37877;SDS011;23715;53.652;8.516;2023-03-23T14:37:43;13.83;;;11.97;;
37877;SDS011;23715;53.652;8.516;2023-03-23T14:42:43;16.25;;;11.83;;
37877;SDS011;23715;53.652;8.516;2023-03-23T14:47:48;17.95;;;11.38;;
37877;SDS011;23715;53.652;8.516;2023-03-23T14:52:49;13.70;;;11.12;;
37877;SDS011;23715;53.652;8.516;2023-03-23T14:57:49;19.77;;;11.57;;
37877;SDS011;23715;53.652;8.516;2023-03-23T15:02:51;17.20;;;11.65;;
37877;SDS011;23715;53.652;8.516;2023-03-23T15:07:54;17.23;;;10.95;;
37877;SDS011;23715;53.652;8.516;2023-03-23T15:12:57;18.35;;;11.00;;
37877;SDS011;23715;53.652;8.516;2023-03-23T15:17:58;14.28;;;11.03;;
37877;SDS011;23715;53.652;8.516;2023-03-23T15:23:06;16.45;;;11.55;;
37877;SDS011;23715;53.652;8.516;2023-03-23T15:28:14;13.30;;;10.05;;
37877;SDS011;23715;53.652;8.516;2023-03-23T15:33:11;17.02;;;11.53;;
37877;SDS011;23715;53.652;8.516;2023-03-23T15:38:19;17.20;;;11.65;;
37877;SDS011;23715;53.652;8.516;2023-03-23T15:43:18;17.05;;;11.63;;
37877;SDS011;23715;53.652;8.516;2023-03-23T15:48:22;18.70;;;12.03;;
37877;SDS011;23715;53.652;8.516;2023-03-23T15:53:33;24.95;;;12.25;;
37877;SDS011;23715;53.652;8.516;2023-03-23T15:58:37;19.42;;;12.05;;
37877;SDS011;23715;53.652;8.516;2023-03-23T16:03:45;20.97;;;13.55;;
37877;SDS011;23715;53.652;8.516;2023-03-23T16:08:50;20.45;;;13.80;;
37877;SDS011;23715;53.652;8.516;2023-03-23T16:13:51;16.23;;;12.90;;
37877;SDS011;23715;53.652;8.516;2023-03-23T16:18:53;15.08;;;12.30;;
37877;SDS011;23715;53.652;8.516;2023-03-23T16:23:55;21.20;;;13.38;;
37877;SDS011;23715;53.652;8.516;2023-03-23T16:28:55;19.50;;;11.80;;
37877;SDS011;23715;53.652;8.516;2023-03-23T16:33:56;15.90;;;12.90;;
37877;SDS011;23715;53.652;8.516;2023-03-23T16:38:56;16.02;;;11.97;;
37877;SDS011;23715;53.652;8.516;2023-03-23T16:43:58;22.13;;;12.95;;
37877;SDS011;23715;53.652;8.516;2023-03-23T16:48:58;16.45;;;12.63;;
37877;SDS011;23715;53.652;8.516;2023-03-23T16:53:59;20.95;;;12.37;;
37877;SDS011;23715;53.652;8.516;2023-03-23T16:58:59;21.60;;;12.73;;
37877;SDS011;23715;53.652;8.516;2023-03-23T17:03:59;18.52;;;13.15;;
37877;SDS011;23715;53.652;8.516;2023-03-23T17:08:59;18.37;;;13.18;;
37877;SDS011;23715;53.652;8.516;2023-03-23T17:14:00;21.15;;;14.73;;
37877;SDS011;23715;53.652;8.516;2023-03-23T17:19:00;18.32;;;14.90;;
37877;SDS011;23715;53.652;8.516;2023-03-23T17:24:01;17.12;;;14.50;;
37877;SDS011;23715;53.652;8.516;2023-03-23T17:29:01;18.32;;;15.32;;
37877;SDS011;23715;53.652;8.516;2023-03-23T17:34:02;18.80;;;14.40;;
37877;SDS011;23715;53.652;8.516;2023-03-23T17:44:02;18.52;;;15.48;;
37877;SDS011;23715;53.652;8.516;2023-03-23T17:49:03;17.07;;;15.10;;
37877;SDS011;23715;53.652;8.516;2023-03-23T17:54:03;16.95;;;15.35;;
37877;SDS011;23715;53.652;8.516;2023-03-23T17:59:04;21.57;;;15.72;;
37877;SDS011;23715;53.652;8.516;2023-03-23T18:04:05;16.73;;;13.68;;
37877;SDS011;23715;53.652;8.516;2023-03-23T18:14:04;16.30;;;14.87;;
37877;SDS011;23715;53.652;8.516;2023-03-23T18:19:05;17.62;;;14.15;;
37877;SDS011;23715;53.652;8.516;2023-03-23T18:24:05;16.25;;;14.58;;
37877;SDS011;23715;53.652;8.516;2023-03-23T18:34:05;18.02;;;14.87;;
37877;SDS011;23715;53.652;8.516;2023-03-23T18:39:06;18.50;;;14.85;;
37877;SDS011;23715;53.652;8.516;2023-03-23T18:44:09;16.95;;;15.20;;
37877;SDS011;23715;53.652;8.516;2023-03-23T18:49:09;16.25;;;14.73;;
37877;SDS011;23715;53.652;8.516;2023-03-23T18:54:09;18.92;;;14.85;;
37877;SDS011;23715;53.652;8.516;2023-03-23T18:59:10;22.37;;;19.67;;
37877;SDS011;23715;53.652;8.516;2023-03-23T19:09:10;22.93;;;20.55;;
37877;SDS011;23715;53.652;8.516;2023-03-23T19:14:10;24.23;;;21.93;;
37877;SDS011;23715;53.652;8.516;2023-03-23T19:19:11;24.77;;;21.82;;
37877;SDS011;23715;53.652;8.516;2023-03-23T19:24:11;25.25;;;22.93;;
37877;SDS011;23715;53.652;8.516;2023-03-23T19:29:18;27.62;;;24.98;;
37877;SDS011;23715;53.652;8.516;2023-03-23T19:34:14;26.95;;;25.00;;
37877;SDS011;23715;53.652;8.516;2023-03-23T19:39:15;31.68;;;29.05;;
37877;SDS011;23715;53.652;8.516;2023-03-23T19:44:16;35.58;;;33.02;;
37877;SDS011;23715;53.652;8.516;2023-03-23T19:49:16;34.03;;;31.62;;
37877;SDS011;23715;53.652;8.516;2023-03-23T19:59:16;43.52;;;40.73;;
37877;SDS011;23715;53.652;8.516;2023-03-23T20:09:17;48.80;;;45.83;;
37877;SDS011;23715;53.652;8.516;2023-03-23T20:14:18;51.18;;;47.85;;
37877;SDS011;23715;53.652;8.516;2023-03-23T20:19:18;52.08;;;48.55;;
37877;SDS011;23715;53.652;8.516;2023-03-23T20:24:18;55.65;;;52.33;;
37877;SDS011;23715;53.652;8.516;2023-03-23T20:29:20;53.23;;;49.48;;
37877;SDS011;23715;53.652;8.516;2023-03-23T20:34:20;59.85;;;55.95;;
37877;SDS011;23715;53.652;8.516;2023-03-23T20:39:28;58.70;;;55.00;;
37877;SDS011;23715;53.652;8.516;2023-03-23T20:44:30;59.05;;;55.08;;
37877;SDS011;23715;53.652;8.516;2023-03-23T20:49:33;64.90;;;60.60;;
37877;SDS011;23715;53.652;8.516;2023-03-23T20:54:36;65.52;;;61.33;;
37877;SDS011;23715;53.652;8.516;2023-03-23T20:59:37;62.73;;;58.92;;
37877;SDS011;23715;53.652;8.516;2023-03-23T21:04:37;63.73;;;59.63;;
37877;SDS011;23715;53.652;8.516;2023-03-23T21:09:39;61.20;;;57.60;;
37877;SDS011;23715;53.652;8.516;2023-03-23T21:14:40;63.42;;;59.03;;
37877;SDS011;23715;53.652;8.516;2023-03-23T21:19:42;66.28;;;62.17;;
37877;SDS011;23715;53.652;8.516;2023-03-23T21:29:43;65.05;;;60.67;;
37877;SDS011;23715;53.652;8.516;2023-03-23T21:39:44;67.17;;;62.90;;
37877;SDS011;23715;53.652;8.516;2023-03-23T21:44:46;61.60;;;57.48;;
37877;SDS011;23715;53.652;8.516;2023-03-23T21:49:52;59.60;;;55.90;;
37877;SDS011;23715;53.652;8.516;2023-03-23T21:54:48;66.02;;;61.80;;
37877;SDS011;23715;53.652;8.516;2023-03-23T22:10:25;62.97;;;58.37;;
37877;SDS011;23715;53.652;8.516;2023-03-23T22:15:23;63.52;;;59.25;;
37877;SDS011;23715;53.652;8.516;2023-03-23T22:20:31;62.98;;;58.75;;
37877;SDS011;23715;53.652;8.516;2023-03-23T22:25:32;66.12;;;61.33;;
37877;SDS011;23715;53.652;8.516;2023-03-23T22:30:34;65.90;;;61.23;;
37877;SDS011;23715;53.652;8.516;2023-03-23T22:35:35;66.10;;;61.65;;
37877;SDS011;23715;53.652;8.516;2023-03-23T22:40:37;62.25;;;57.75;;
37877;SDS011;23715;53.652;8.516;2023-03-23T22:45:39;64.10;;;59.67;;
37877;SDS011;23715;53.652;8.516;2023-03-23T22:50:39;63.57;;;58.77;;
37877;SDS011;23715;53.652;8.516;2023-03-23T22:55:45;64.25;;;59.75;;
37877;SDS011;23715;53.652;8.516;2023-03-23T23:00:49;61.73;;;56.92;;
37877;SDS011;23715;53.652;8.516;2023-03-23T23:05:52;60.38;;;56.23;;
37877;SDS011;23715;53.652;8.516;2023-03-23T23:10:55;64.35;;;59.58;;
37877;SDS011;23715;53.652;8.516;2023-03-23T23:15:58;64.20;;;59.67;;
37877;SDS011;23715;53.652;8.516;2023-03-23T23:21:00;61.23;;;56.80;;
37877;SDS011;23715;53.652;8.516;2023-03-23T23:26:04;60.67;;;56.25;;
37877;SDS011;23715;53.652;8.516;2023-03-23T23:36:24;60.75;;;56.45;;
37877;SDS011;23715;53.652;8.516;2023-03-23T23:41:31;59.58;;;55.23;;
37877;SDS011;23715;53.652;8.516;2023-03-23T23:46:33;60.12;;;55.67;;
37877;SDS011;23715;53.652;8.516;2023-03-23T23:51:34;62.48;;;58.00;;
37877;SDS011;23715;53.652;8.516;2023-03-23T23:56:34;62.25;;;57.73;;
